CheckWX is a tool to help pilots better visualize weather data.  It is not intended as a substitute for an official pre-flight weather briefing.

20:32:12 UTC

ESOE METAR
Örebro Airport
Örebro, Sweden
Current

12 mins ago

ESOE 182020Z 23007KT 190V260 9999 OVC014 07/05 Q1007
Observed
Feb-18 @ 20:20 UTC
Wind
  • 230° at 7 KTS
Visibility
10,000+ meters
Flight Rules
MVFR
Cloud Levels
  • Overcast at 1,400' AGL
Temperature
C / 45°F
Dewpoint
C / 41°F
Humidity
87%
Altimeter
29.73" Hg
Pressure
1006.92 hPa
Previous

42 mins ago

ESOE 181950Z 24008KT 9999 FEW013 OVC016 07/05 Q1008
Observed
Feb-18 @ 19:50 UTC
Wind
  • 240° at 8 KTS
Visibility
10,000+ meters
Flight Rules
MVFR
Cloud Levels
  • Few at 1,300' AGL
  • Overcast at 1,600' AGL
Temperature
C / 45°F
Dewpoint
C / 41°F
Humidity
87%
Altimeter
29.76" Hg
Pressure
1007.92 hPa
Previous

1 hour ago

ESOE 181920Z 23008KT 9999 OVC013 07/05 Q1008
Observed
Feb-18 @ 19:20 UTC
Wind
  • 230° at 8 KTS
Visibility
10,000+ meters
Flight Rules
MVFR
Cloud Levels
  • Overcast at 1,300' AGL
Temperature
C / 45°F
Dewpoint
C / 41°F
Humidity
87%
Altimeter
29.76" Hg
Pressure
1007.92 hPa